Time;durP1;ratioP1;P1;durP2;ratioP2;P2;SDS_P1;SDS_P2;PMS_P1;PMS_P2;Temp;Humidity;BMP_temperature;BMP_pressure;BME280_temperature;BME280_humidity;BME280_pressure;Samples;Min_cycle;Max_cycle;Signal;HPM_P1;HPM_P2
2021/10/03 00:02:52;;;;;;;24.40;19.10;;;;;;;11.35;81.40;100428.66;112381;1203;138052;-67
2021/10/03 00:05:39;;;;;;;27.00;18.80;;;;;;;11.32;81.44;100423.89;113960;1202;110735;-65
2021/10/03 00:08:26;;;;;;;24.70;18.30;;;;;;;11.30;81.39;100418.18;112446;1203;138289;-66
2021/10/03 00:11:14;;;;;;;25.60;19.70;;;;;;;11.30;81.79;100419.93;112391;1203;108622;-66
2021/10/03 00:14:01;;;;;;;26.80;19.20;;;;;;;11.30;81.82;100419.75;112935;1203;137794;-66
2021/10/03 00:16:52;;;;;;;27.30;18.60;;;;;;;11.28;81.61;100422.24;112523;1203;96154;-66
2021/10/03 00:19:39;;;;;;;23.90;18.10;;;;;;;11.29;81.73;100423.12;112388;1203;138994;-67
2021/10/03 00:22:27;;;;;;;26.50;19.80;;;;;;;11.28;81.56;100425.59;114150;1201;108633;-66
2021/10/03 00:25:14;;;;;;;28.60;19.50;;;;;;;11.26;81.69;100429.63;112774;1202;137795;-66
2021/10/03 00:28:01;;;;;;;22.80;18.10;;;;;;;11.25;81.78;100432.27;114147;1201;94718;-67
2021/10/03 00:30:48;;;;;;;24.10;19.40;;;;;;;11.25;81.91;100431.27;114113;1201;94190;-66
2021/10/03 00:33:35;;;;;;;26.20;19.40;;;;;;;11.24;81.66;100435.27;114079;1202;139317;-66
2021/10/03 00:36:22;;;;;;;25.30;18.70;;;;;;;11.24;81.68;100439.30;114031;1193;108935;-67
2021/10/03 00:39:09;;;;;;;26.50;18.80;;;;;;;11.23;81.68;100439.67;113956;1202;138450;-67
2021/10/03 00:41:56;;;;;;;26.20;19.20;;;;;;;11.24;81.63;100444.34;113699;1202;96192;-67
2021/10/03 00:44:43;;;;;;;25.50;19.10;;;;;;;11.23;81.73;100449.95;112582;1202;137473;-67
2021/10/03 00:47:30;;;;;;;26.80;18.50;;;;;;;11.22;81.71;100443.20;112729;1203;111055;-67
2021/10/03 00:50:17;;;;;;;26.20;18.00;;;;;;;11.19;81.64;100453.90;112456;1203;138493;-67
2021/10/03 00:53:04;;;;;;;25.40;19.30;;;;;;;11.16;81.58;100450.49;113698;1202;109072;-65
2021/10/03 00:55:51;;;;;;;25.80;18.20;;;;;;;11.15;81.77;100450.90;112667;1201;138725;-67
2021/10/03 00:58:39;;;;;;;25.50;18.60;;;;;;;11.11;81.62;100450.31;112610;1203;96165;-66
2021/10/03 01:01:26;;;;;;;22.60;18.40;;;;;;;11.07;81.76;100452.35;114022;1202;138427;-66
2021/10/03 01:04:13;;;;;;;24.50;19.60;;;;;;;11.03;81.76;100444.65;114185;1202;108628;-66
2021/10/03 01:07:00;;;;;;;24.80;19.00;;;;;;;11.00;81.90;100443.36;112710;1203;108884;-66
2021/10/03 01:09:48;;;;;;;22.50;18.30;;;;;;;10.97;81.95;100440.68;112651;1202;138077;-65
2021/10/03 01:12:35;;;;;;;24.30;18.30;;;;;;;10.93;81.95;100437.47;114082;1202;94212;-66
2021/10/03 01:15:23;;;;;;;27.60;19.70;;;;;;;10.90;82.18;100439.82;112605;1202;137906;-67
2021/10/03 01:18:11;;;;;;;25.80;18.30;;;;;;;10.87;81.95;100436.06;112601;1202;108557;-66
2021/10/03 01:21:06;;;;;;;25.50;18.60;;;;;;;10.86;81.98;100436.11;112592;1202;138466;-67
2021/10/03 01:23:58;;;;;;;26.30;18.40;;;;;;;10.86;82.16;100437.51;112689;1202;96140;-67
2021/10/03 01:26:45;;;;;;;26.60;19.50;;;;;;;10.85;82.20;100439.64;112651;1193;137946;-66
2021/10/03 01:29:32;;;;;;;;;;;;;;;10.81;82.26;100436.45;112745;1203;110923;-65
2021/10/03 01:32:19;;;;;;;27.20;18.70;;;;;;;10.78;82.12;100431.68;112592;1202;124879;-65
2021/10/03 01:35:09;;;;;;;28.30;19.80;;;;;;;10.75;82.40;100430.35;113168;1202;108672;-65
2021/10/03 01:37:56;;;;;;;28.30;20.00;;;;;;;10.72;82.63;100425.04;112829;1202;138217;-65
2021/10/03 01:40:45;;;;;;;23.80;17.40;;;;;;;10.68;82.53;100422.42;113529;1202;96213;-64
2021/10/03 01:43:32;;;;;;;23.60;18.10;;;;;;;10.65;82.78;100419.35;113404;1193;138389;-65
2021/10/03 01:46:19;;;;;;;;;;;;;;;10.65;82.65;100416.59;114239;1202;109562;-66
2021/10/03 01:49:05;;;;;;;28.40;19.80;;;;;;;10.62;82.79;100420.50;114108;1202;107510;-65
2021/10/03 01:51:52;;;;;;;23.50;18.20;;;;;;;10.60;82.75;100415.34;114039;1202;137965;-66
2021/10/03 01:54:39;;;;;;;24.50;18.70;;;;;;;10.59;82.58;100415.70;112962;1202;96214;-68
2021/10/03 01:57:26;;;;;;;25.40;19.90;;;;;;;10.60;82.80;100410.65;112502;1203;137863;-69
2021/10/03 02:00:14;;;;;;;25.30;19.70;;;;;;;10.60;82.72;100405.09;112645;1203;108809;-67
2021/10/03 02:03:20;;;;;;;26.10;18.10;;;;;;;10.57;82.60;100398.88;114672;1185;108454;-67
2021/10/03 02:06:08;;;;;;;24.90;19.30;;;;;;;10.55;82.69;100400.86;112514;1200;96152;-68
2021/10/03 02:08:58;;;;;;;28.30;19.80;;;;;;;10.52;82.56;100395.74;114099;1200;137370;-67
2021/10/03 02:11:50;;;;;;;26.00;18.60;;;;;;;10.49;82.68;100399.33;114187;1200;110117;-68
2021/10/03 02:14:37;;;;;;;27.40;18.70;;;;;;;10.45;82.90;100392.33;114005;1200;138389;-68
2021/10/03 02:17:24;;;;;;;30.60;20.30;;;;;;;10.44;82.90;100402.09;113617;1200;108496;-68
2021/10/03 02:20:14;;;;;;;25.30;19.20;;;;;;;10.42;82.96;100401.61;112683;1200;137909;-70
2021/10/03 02:23:03;;;;;;;27.10;18.90;;;;;;;10.39;82.95;100398.91;112762;1201;96154;-67
2021/10/03 02:25:50;;;;;;;23.90;17.10;;;;;;;10.35;83.11;100402.14;114201;1200;110843;-67
2021/10/03 02:28:37;;;;;;;27.90;19.70;;;;;;;10.34;83.08;100399.59;113310;1200;137693;-67
2021/10/03 02:31:24;;;;;;;24.00;18.80;;;;;;;10.32;83.17;100401.41;114227;1200;108513;-67
2021/10/03 02:34:10;;;;;;;21.10;16.90;;;;;;;10.28;83.37;100403.58;113974;1200;137869;-68
2021/10/03 02:36:58;;;;;;;24.30;17.30;;;;;;;10.26;83.46;100399.48;114201;1200;94519;-67
2021/10/03 02:39:45;;;;;;;24.80;18.10;;;;;;;10.25;83.74;100397.23;114079;1200;138335;-67
2021/10/03 02:42:33;;;;;;;26.50;18.80;;;;;;;10.24;83.57;100393.08;114187;1200;108638;-67
2021/10/03 02:45:20;;;;;;;21.40;17.20;;;;;;;10.24;83.76;100393.95;114002;1200;138712;-67
2021/10/03 02:48:07;;;;;;;23.00;17.30;;;;;;;10.23;83.62;100393.45;114260;1200;95685;-68
2021/10/03 02:50:54;;;;;;;25.40;17.80;;;;;;;10.22;83.48;100397.12;114071;1200;138277;-66
2021/10/03 02:53:40;;;;;;;25.80;18.30;;;;;;;10.20;83.53;100394.71;114207;1200;110970;-69
2021/10/03 02:56:30;;;;;;;24.30;17.10;;;;;;;10.18;83.61;100390.62;114050;1200;138982;-69
2021/10/03 02:59:16;;;;;;;24.50;18.60;;;;;;;10.16;83.65;100387.52;113166;1200;109017;-71
2021/10/03 03:02:04;;;;;;;25.90;18.00;;;;;;;10.15;83.52;100383.93;112813;1200;96187;-71
2021/10/03 03:04:51;;;;;;;23.30;18.40;;;;;;;10.12;83.42;100390.79;114035;1202;137528;-67
2021/10/03 03:07:38;;;;;;;23.80;16.90;;;;;;;10.09;83.64;100395.05;113120;1202;110751;-66
2021/10/03 03:10:25;;;;;;;23.00;17.80;;;;;;;10.08;83.47;100389.89;114095;1199;137980;-67
2021/10/03 03:13:12;;;;;;;25.60;18.00;;;;;;;10.04;83.74;100393.77;114175;1200;108678;-67
2021/10/03 03:15:59;;;;;;;22.20;17.40;;;;;;;10.02;83.58;100390.20;114080;1200;138813;-67
2021/10/03 03:18:46;;;;;;;20.50;16.70;;;;;;;9.99;83.55;100393.05;114222;1200;94519;-67
2021/10/03 03:21:33;;;;;;;22.90;17.60;;;;;;;9.98;83.89;100393.61;114098;1200;139235;-67
2021/10/03 03:24:20;;;;;;;27.90;18.90;;;;;;;9.96;83.87;100386.35;114208;1199;108711;-67
2021/10/03 03:27:07;;;;;;;24.20;16.60;;;;;;;9.94;83.67;100389.91;112967;1200;137941;-69
2021/10/03 03:29:54;;;;;;;24.90;16.30;;;;;;;9.90;83.72;100386.54;112692;1201;96150;-69
2021/10/03 03:32:41;;;;;;;25.10;18.50;;;;;;;9.88;83.84;100389.55;113696;1200;137943;-69
2021/10/03 03:35:28;;;;;;;24.90;17.60;;;;;;;9.86;83.77;100388.55;112872;1200;110820;-66
2021/10/03 03:38:15;;;;;;;;;;;;;;;9.84;83.92;100386.86;112807;1200;108049;-68
2021/10/03 03:41:05;;;;;;;23.00;17.70;;;;;;;9.79;83.91;100384.40;112658;1201;124243;-68
2021/10/03 03:43:52;;;;;;;25.00;18.30;;;;;;;9.76;84.16;100383.79;114158;1201;94402;-68
2021/10/03 03:46:38;;;;;;;26.30;18.60;;;;;;;9.72;83.97;100381.30;114097;1200;137232;-68
2021/10/03 03:49:26;;;;;;;23.90;17.60;;;;;;;9.69;84.10;100378.58;114262;1199;110780;-68
2021/10/03 03:52:13;;;;;;;26.00;17.70;;;;;;;9.68;84.10;100380.67;114089;1200;138117;-68
2021/10/03 03:55:00;;;;;;;24.90;18.60;;;;;;;9.68;84.23;100380.49;114170;1199;108491;-68
2021/10/03 03:57:49;;;;;;;24.70;18.00;;;;;;;9.68;84.19;100384.67;113526;1200;138314;-68
2021/10/03 04:00:36;;;;;;;27.00;17.60;;;;;;;9.67;84.10;100381.39;114219;1201;96892;-68
2021/10/03 04:03:23;;;;;;;21.40;17.60;;;;;;;9.65;84.18;100384.21;112693;1200;138113;-67
2021/10/03 04:06:09;;;;;;;26.70;19.20;;;;;;;9.64;84.14;100381.99;112833;1200;108192;-69
2021/10/03 04:08:56;;;;;;;25.60;17.40;;;;;;;9.63;84.27;100382.38;112610;1200;138395;-66
2021/10/03 04:11:43;;;;;;;28.30;18.00;;;;;;;9.60;84.19;100381.08;112830;1200;96225;-68
2021/10/03 04:14:30;;;;;;;29.30;18.70;;;;;;;9.59;84.34;100381.13;112728;1200;96170;-68
2021/10/03 04:17:17;;;;;;;25.80;18.10;;;;;;;9.57;84.42;100379.42;112688;1200;137267;-69
2021/10/03 04:20:05;;;;;;;24.10;17.80;;;;;;;9.53;84.36;100370.33;112798;1200;108407;-68
2021/10/03 04:22:51;;;;;;;23.70;17.10;;;;;;;9.51;84.62;100370.36;114049;1199;138598;-68
2021/10/03 04:25:38;;;;;;;27.10;18.30;;;;;;;9.50;84.76;100370.21;114200;1200;94949;-68
2021/10/03 04:28:25;;;;;;;22.50;17.40;;;;;;;9.49;84.87;100370.05;112596;1200;138222;-67
2021/10/03 04:31:13;;;;;;;25.90;17.20;;;;;;;9.50;84.69;100371.77;112703;1200;110980;-69
2021/10/03 04:34:03;;;;;;;26.50;18.00;;;;;;;9.51;84.69;100367.25;112602;1185;138128;-67
2021/10/03 04:36:51;;;;;;;28.60;18.40;;;;;;;9.52;84.57;100367.08;112709;1199;108510;-67
2021/10/03 04:39:42;;;;;;;28.10;18.40;;;;;;;9.51;84.61;100365.67;112629;1200;138417;-69
2021/10/03 04:42:40;;;;;;;22.50;16.80;;;;;;;9.51;84.70;100371.05;112719;1200;96177;-68
2021/10/03 04:45:30;;;;;;;25.90;18.90;;;;;;;9.51;84.64;100366.89;114104;1194;138303;-67
2021/10/03 04:48:20;;;;;;;26.60;18.70;;;;;;;9.52;84.62;100366.54;114269;1200;109084;-67
2021/10/03 04:51:09;;;;;;;23.20;17.80;;;;;;;9.52;84.68;100363.77;113446;1200;138666;-68
2021/10/03 04:53:56;;;;;;;21.70;16.40;;;;;;;9.55;84.47;100366.30;112725;1200;96282;-69
2021/10/03 04:56:44;;;;;;;25.20;18.90;;;;;;;9.60;84.55;100369.44;112792;1200;96193;-69
2021/10/03 04:59:31;;;;;;;25.00;18.30;;;;;;;9.63;84.40;100371.95;112678;1200;137361;-69
2021/10/03 05:02:18;;;;;;;24.30;16.70;;;;;;;9.69;84.29;100376.50;112677;1199;108668;-67
2021/10/03 05:05:07;;;;;;;22.30;16.60;;;;;;;9.74;84.21;100377.23;113725;1199;138755;-67
2021/10/03 05:07:54;;;;;;;22.40;17.50;;;;;;;9.81;84.11;100383.64;114186;1193;94388;-67
2021/10/03 05:10:46;;;;;;;26.80;16.70;;;;;;;9.88;83.87;100386.77;114097;1199;138078;-68
2021/10/03 05:13:37;;;;;;;23.50;16.30;;;;;;;9.91;83.66;100389.97;114238;1199;110890;-68
2021/10/03 05:16:28;;;;;;;24.20;17.90;;;;;;;9.99;83.43;100390.45;112810;1200;138244;-67
2021/10/03 05:19:19;;;;;;;21.30;16.60;;;;;;;10.07;83.13;100393.71;112721;1200;108669;-69
2021/10/03 05:22:07;;;;;;;22.70;17.30;;;;;;;10.17;82.99;100391.17;112675;1200;138792;-68
2021/10/03 05:24:54;;;;;;;20.00;16.20;;;;;;;10.30;82.59;100390.99;112793;1200;96161;-68
2021/10/03 05:27:42;;;;;;;25.50;18.10;;;;;;;10.49;82.28;100394.13;112655;1200;137733;-68
2021/10/03 05:30:35;;;;;;;23.00;14.90;;;;;;;10.69;81.72;100391.91;112772;1199;108205;-68
2021/10/03 05:33:23;;;;;;;23.20;17.00;;;;;;;10.90;81.25;100390.23;112675;1199;138284;-69
2021/10/03 05:36:13;;;;;;;22.70;16.20;;;;;;;11.12;80.56;100387.45;112767;1200;96144;-68
2021/10/03 05:39:01;;;;;;;22.00;16.20;;;;;;;11.30;79.68;100389.31;112722;1199;96320;-68
2021/10/03 05:41:48;;;;;;;20.40;15.50;;;;;;;11.54;79.22;100381.70;114061;1199;138590;-70
2021/10/03 05:44:34;;;;;;;19.90;15.40;;;;;;;11.82;78.23;100382.52;114211;1199;108620;-70
2021/10/03 05:47:21;;;;;;;20.60;15.50;;;;;;;12.12;77.29;100385.27;114088;1199;138497;-69
2021/10/03 05:50:09;;;;;;;22.60;15.40;;;;;;;12.38;76.00;100382.38;114190;1200;94580;-69
2021/10/03 05:52:56;;;;;;;19.50;15.80;;;;;;;12.62;75.34;100378.16;114037;1200;138146;-66
2021/10/03 05:55:42;;;;;;;18.60;15.20;;;;;;;12.85;74.52;100381.81;114270;1199;109835;-68
2021/10/03 05:58:29;;;;;;;20.20;15.90;;;;;;;13.05;74.52;100378.55;114049;1198;138140;-69
2021/10/03 06:01:16;;;;;;;17.90;13.90;;;;;;;13.32;73.87;100372.98;114185;1200;107493;-68
2021/10/03 06:04:03;;;;;;;16.60;14.30;;;;;;;13.55;72.88;100376.70;114137;1199;138348;-68
2021/10/03 06:06:50;;;;;;;20.10;15.30;;;;;;;13.79;72.19;100370.61;114180;1200;94597;-68
2021/10/03 06:09:36;;;;;;;20.00;15.20;;;;;;;13.89;70.93;100374.71;113659;1199;138081;-67
2021/10/03 06:12:24;;;;;;;20.80;14.50;;;;;;;13.87;70.48;100378.30;112687;1200;108543;-71
2021/10/03 06:15:11;;;;;;;19.20;14.40;;;;;;;14.10;69.98;100373.80;114160;1200;106919;-67
2021/10/03 06:17:58;;;;;;;18.00;14.50;;;;;;;14.32;69.65;100373.48;112618;1200;137584;-67
2021/10/03 06:20:45;;;;;;;16.80;14.40;;;;;;;14.48;69.14;100377.33;114186;1200;94492;-67
2021/10/03 06:23:32;;;;;;;17.40;14.90;;;;;;;14.84;68.71;100371.77;114101;1199;137484;-67
2021/10/03 06:26:18;;;;;;;17.40;14.10;;;;;;;15.65;67.50;100367.09;114233;1200;107491;-67
2021/10/03 06:29:05;;;;;;;16.10;13.40;;;;;;;16.74;66.40;100366.89;114034;1199;137631;-66
2021/10/03 06:31:52;;;;;;;18.30;14.00;;;;;;;17.88;62.70;100368.39;114167;1200;94366;-67
2021/10/03 06:34:39;;;;;;;17.70;12.30;;;;;;;18.71;61.43;100361.80;113287;1200;137405;-66
2021/10/03 06:37:26;;;;;;;16.50;12.60;;;;;;;19.34;58.23;100354.88;112849;1200;109733;-66
2021/10/03 06:40:13;;;;;;;14.50;12.20;;;;;;;19.65;55.36;100366.72;112697;1200;137967;-66
2021/10/03 06:43:00;;;;;;;14.00;12.00;;;;;;;19.81;54.47;100358.23;114111;1199;108694;-65
2021/10/03 06:45:47;;;;;;;15.00;12.50;;;;;;;19.96;53.59;100357.19;114111;1193;138098;-66
2021/10/03 06:48:33;;;;;;;13.90;12.20;;;;;;;20.07;53.75;100353.80;114141;1199;94219;-66
2021/10/03 06:51:20;;;;;;;14.40;11.80;;;;;;;20.16;54.01;100355.98;113925;1199;111266;-66
2021/10/03 06:54:07;;;;;;;;;;;;;;;20.42;52.33;100368.06;113147;1200;137419;-66
2021/10/03 06:56:55;;;;;;;14.70;11.90;;;;;;;20.56;51.21;100366.96;112772;1200;108498;-66
2021/10/03 06:59:45;;;;;;;14.30;11.60;;;;;;;20.78;51.15;100358.61;112549;1200;137566;-66
2021/10/03 07:02:33;;;;;;;14.10;12.00;;;;;;;20.95;49.43;100366.55;112707;1200;96277;-65
2021/10/03 07:05:20;;;;;;;18.30;11.60;;;;;;;21.09;48.67;100371.54;114040;1199;137585;-67
2021/10/03 07:08:07;;;;;;;13.20;10.90;;;;;;;21.28;49.43;100369.59;114211;1199;108714;-67
2021/10/03 07:10:54;;;;;;;16.30;11.90;;;;;;;21.66;49.31;100370.99;113991;1200;137507;-67
2021/10/03 07:13:42;;;;;;;13.00;10.80;;;;;;;22.03;48.02;100372.92;114128;1200;94442;-68
2021/10/03 07:16:30;;;;;;;12.00;10.00;;;;;;;22.51;47.97;100371.66;114058;1199;138083;-68
2021/10/03 07:19:16;;;;;;;10.50;9.10;;;;;;;23.09;46.37;100367.79;114207;1199;110952;-67
2021/10/03 07:22:03;;;;;;;13.70;10.40;;;;;;;23.46;46.05;100361.63;114128;1200;138701;-66
2021/10/03 07:24:50;;;;;;;12.10;9.70;;;;;;;23.78;44.59;100365.42;113610;1199;108625;-66
2021/10/03 07:27:37;;;;;;;13.60;10.70;;;;;;;24.17;44.58;100356.02;112762;1200;96172;-66
2021/10/03 07:30:24;;;;;;;12.20;10.20;;;;;;;24.64;43.82;100358.98;112568;1200;137726;-65
2021/10/03 07:33:11;;;;;;;11.20;9.90;;;;;;;24.89;43.53;100358.47;114141;1198;110807;-66
2021/10/03 07:35:57;;;;;;;11.50;10.30;;;;;;;25.10;42.78;100365.52;114101;1199;137800;-68
2021/10/03 07:38:45;;;;;;;14.70;11.00;;;;;;;25.12;40.59;100366.88;114161;1200;107858;-66
2021/10/03 07:41:32;;;;;;;13.40;10.50;;;;;;;24.95;40.32;100367.20;114076;1199;137490;-67
2021/10/03 07:44:19;;;;;;;13.50;10.00;;;;;;;24.85;40.50;100367.88;114168;1200;94302;-67
2021/10/03 07:47:06;;;;;;;12.20;10.30;;;;;;;25.17;41.41;100363.39;114067;1200;137327;-67
2021/10/03 07:49:52;;;;;;;11.10;10.00;;;;;;;25.35;40.38;100357.66;114195;1199;108413;-67
2021/10/03 07:52:39;;;;;;;12.40;10.40;;;;;;;25.30;39.82;100353.64;112594;1199;137815;-66
2021/10/03 07:55:29;;;;;;;11.20;9.80;;;;;;;25.22;39.06;100358.01;112697;1200;96379;-64
2021/10/03 07:58:16;;;;;;;12.00;9.70;;;;;;;25.23;40.01;100356.98;112615;1200;137385;-63
2021/10/03 08:01:03;;;;;;;10.70;9.60;;;;;;;25.34;40.26;100355.13;113776;1199;110743;-63
2021/10/03 08:03:50;;;;;;;12.10;10.20;;;;;;;25.72;40.10;100357.55;112647;1200;107599;-65
2021/10/03 08:06:37;;;;;;;12.60;9.30;;;;;;;25.80;38.96;100358.80;114028;1200;137650;-64
2021/10/03 08:09:23;;;;;;;12.40;9.70;;;;;;;26.01;39.95;100356.52;114147;1199;95413;-64
2021/10/03 08:12:10;;;;;;;13.00;9.90;;;;;;;26.23;38.74;100358.08;113997;1199;137529;-65
2021/10/03 08:14:57;;;;;;;11.20;9.00;;;;;;;26.24;38.07;100359.81;114180;1200;111191;-65
2021/10/03 08:17:43;;;;;;;11.00;8.90;;;;;;;26.14;38.32;100352.92;114020;1200;137973;-67
2021/10/03 08:20:35;;;;;;;10.40;8.70;;;;;;;26.29;38.15;100351.46;114149;1198;108019;-65
2021/10/03 08:23:21;;;;;;;10.70;8.90;;;;;;;26.33;38.11;100342.02;114028;1200;137893;-65
2021/10/03 08:26:08;;;;;;;;;;;;;;;26.49;37.69;100355.29;114119;1200;94920;-65
2021/10/03 08:28:55;;;;;;;13.80;8.60;;;;;;;26.48;38.08;100349.06;114052;1198;125160;-64
2021/10/03 08:31:42;;;;;;;11.40;8.60;;;;;;;26.82;39.07;100341.53;114191;1200;108894;-66
2021/10/03 08:34:31;;;;;;;14.00;9.00;;;;;;;27.34;37.68;100332.73;113997;1200;138482;-66
2021/10/03 08:37:18;;;;;;;10.50;8.50;;;;;;;27.42;36.98;100338.70;114194;1198;94495;-64
2021/10/03 08:40:07;;;;;;;11.70;9.40;;;;;;;27.37;35.36;100344.55;114118;1199;94374;-65
2021/10/03 08:42:54;;;;;;;10.80;8.20;;;;;;;27.20;36.35;100340.27;113929;1199;137088;-64
2021/10/03 08:45:44;;;;;;;11.90;8.50;;;;;;;27.09;36.33;100336.52;112941;1200;109464;-65
2021/10/03 08:48:31;;;;;;;10.60;8.40;;;;;;;27.10;36.75;100337.50;113933;1199;138619;-65
2021/10/03 08:51:17;;;;;;;12.60;9.30;;;;;;;27.32;36.59;100328.52;114105;1199;94565;-64
2021/10/03 08:54:05;;;;;;;10.40;8.40;;;;;;;27.47;36.67;100325.29;113976;1199;137484;-65
2021/10/03 08:56:56;;;;;;;;;;;;;;;27.66;36.21;100324.85;114115;1199;111097;-66
2021/10/03 09:00:00;;;;;;;12.40;9.20;;;;;;;27.51;35.86;100324.61;114112;1199;123997;-68
2021/10/03 09:02:56;;;;;;;11.50;8.40;;;;;;;27.32;35.90;100329.77;114175;1199;108685;-67
2021/10/03 09:05:48;;;;;;;13.80;9.30;;;;;;;27.41;36.57;100322.73;113999;1199;137489;-65
2021/10/03 09:08:47;;;;;;;12.60;8.70;;;;;;;27.42;35.37;100321.23;114126;1200;95579;-65
2021/10/03 09:11:35;;;;;;;9.60;8.40;;;;;;;27.11;34.83;100328.60;112553;1200;137498;-66
2021/10/03 09:14:35;;;;;;;9.80;8.40;;;;;;;26.60;35.04;100328.33;112660;1200;108806;-66
2021/10/03 09:17:23;;;;;;;9.90;7.70;;;;;;;26.19;36.09;100328.40;113892;1199;137984;-67
2021/10/03 09:20:19;;;;;;;10.90;8.70;;;;;;;25.94;36.12;100325.27;114116;1200;94458;-68
2021/10/03 09:23:08;;;;;;;10.30;7.90;;;;;;;25.84;36.17;100319.06;113983;1200;138525;-68
2021/10/03 09:25:56;;;;;;;11.00;8.30;;;;;;;25.73;36.75;100319.06;114173;1199;110852;-67
2021/10/03 09:28:42;;;;;;;12.20;8.50;;;;;;;25.62;36.55;100315.27;114111;1199;137571;-66
2021/10/03 09:31:29;;;;;;;;;;;;;;;25.57;36.55;100316.48;114220;1198;108867;-66
2021/10/03 09:34:24;;;;;;;13.00;8.40;;;;;;;25.55;37.17;100306.17;114186;1199;94281;-67
2021/10/03 09:37:28;;;;;;;10.40;7.90;;;;;;;25.58;36.37;100323.48;114034;1199;138120;-68
2021/10/03 09:40:18;;;;;;;10.70;8.10;;;;;;;25.34;36.42;100306.65;114155;1199;110308;-66
2021/10/03 09:43:05;;;;;;;10.60;8.60;;;;;;;25.20;36.64;100305.29;114009;1199;137936;-66
2021/10/03 09:45:52;;;;;;;;;;;;;;;25.00;36.03;100303.61;114194;1200;108776;-66
2021/10/03 09:48:49;;;;;;;10.20;8.20;;;;;;;24.62;36.91;100304.33;114076;1199;124099;-67
2021/10/03 09:51:37;;;;;;;9.60;8.30;;;;;;;24.29;37.53;100305.55;114151;1200;94341;-65
2021/10/03 09:54:25;;;;;;;12.10;8.60;;;;;;;23.98;37.89;100301.70;114111;1199;137510;-66
2021/10/03 09:57:17;;;;;;;10.80;8.40;;;;;;;23.88;38.53;100300.45;114161;1198;108516;-66
2021/10/03 10:00:04;;;;;;;11.30;8.80;;;;;;;23.75;38.45;100301.92;112715;1200;137612;-66
2021/10/03 10:02:52;;;;;;;10.20;8.70;;;;;;;23.65;38.53;100310.21;113987;1199;94416;-66
2021/10/03 10:05:39;;;;;;;12.00;9.10;;;;;;;23.33;38.84;100305.79;112838;1200;137707;-64
2021/10/03 10:08:25;;;;;;;12.00;8.80;;;;;;;22.96;39.11;100310.55;112790;1199;110855;-66
2021/10/03 10:11:17;;;;;;;;;;;;;;;22.80;40.01;100300.68;112551;1200;137713;-67
2021/10/03 10:14:06;;;;;;;10.80;8.40;;;;;;;22.71;39.93;100308.14;112698;1200;108651;-65
2021/10/03 10:16:57;;;;;;;10.50;8.60;;;;;;;22.45;40.16;100302.27;113966;1200;138030;-66
2021/10/03 10:19:44;;;;;;;11.60;9.10;;;;;;;22.16;40.53;100307.23;114174;1199;94559;-65
2021/10/03 10:22:35;;;;;;;12.40;9.30;;;;;;;21.87;41.00;100308.13;114142;1200;111070;-65
2021/10/03 10:25:55;;;;;;;12.90;9.40;;;;;;;21.53;41.32;100303.50;114024;1199;139265;-66
2021/10/03 10:28:41;;;;;;;15.00;9.40;;;;;;;21.37;42.11;100293.55;114083;1200;108625;-65
2021/10/03 10:31:32;;;;;;;14.50;10.00;;;;;;;21.23;42.37;100300.52;113993;1200;138009;-65
2021/10/03 10:34:19;;;;;;;12.90;9.70;;;;;;;21.10;43.16;100283.91;112717;1200;96232;-65
2021/10/03 10:37:06;;;;;;;12.70;9.60;;;;;;;21.10;43.48;100281.45;113745;1200;137413;-65
2021/10/03 10:40:24;;;;;;;11.60;10.40;;;;;;;21.10;43.77;100279.02;114203;1200;107802;-65
2021/10/03 10:43:11;;;;;;;15.90;10.80;;;;;;;21.01;43.79;100275.98;114079;1200;138088;-65
2021/10/03 10:45:58;;;;;;;16.80;10.50;;;;;;;20.77;44.11;100272.07;114215;1200;95358;-65
2021/10/03 10:48:44;;;;;;;14.20;10.40;;;;;;;20.56;44.68;100272.05;114142;1199;137583;-65
2021/10/03 10:51:31;;;;;;;16.00;10.20;;;;;;;20.49;45.17;100278.23;114211;1200;110233;-65
2021/10/03 10:54:18;;;;;;;13.30;10.10;;;;;;;20.51;45.38;100270.28;114144;1199;137611;-66
2021/10/03 10:57:09;;;;;;;12.50;10.40;;;;;;;20.67;45.39;100276.23;114204;1199;108599;-66
2021/10/03 11:00:14;;;;;;;14.20;10.10;;;;;;;20.66;45.47;100268.02;114029;1199;138742;-65
2021/10/03 11:03:03;;;;;;;12.40;9.70;;;;;;;20.68;45.18;100272.08;114176;1199;94421;-65
2021/10/03 11:05:51;;;;;;;11.80;10.00;;;;;;;20.62;45.01;100280.33;114103;1200;137899;-65
2021/10/03 11:08:56;;;;;;;13.50;9.70;;;;;;;20.40;45.28;100271.64;114241;1199;108635;-65
2021/10/03 11:11:51;;;;;;;13.00;9.40;;;;;;;20.17;45.65;100292.54;114089;1199;138247;-66
2021/10/03 11:14:41;;;;;;;13.30;9.80;;;;;;;20.03;46.00;100291.75;114136;1200;96858;-66
2021/10/03 11:17:33;;;;;;;16.60;9.80;;;;;;;19.90;46.16;100284.33;114099;1199;137419;-65
2021/10/03 11:20:20;;;;;;;15.40;10.00;;;;;;;19.87;46.22;100285.98;114197;1199;110973;-65
2021/10/03 11:23:06;;;;;;;11.90;9.80;;;;;;;19.85;46.70;100288.21;114212;1199;107564;-65
2021/10/03 11:26:02;;;;;;;11.90;10.00;;;;;;;19.87;47.01;100285.98;114236;1200;108515;-65
2021/10/03 11:28:59;;;;;;;12.50;9.90;;;;;;;19.84;46.57;100282.14;114187;1199;94426;-65
2021/10/03 11:31:52;;;;;;;14.10;9.50;;;;;;;19.80;46.57;100282.59;114065;1199;137807;-64
2021/10/03 11:34:43;;;;;;;11.70;9.30;;;;;;;19.64;46.64;100278.41;114225;1200;111469;-66
2021/10/03 11:37:41;;;;;;;11.30;9.30;;;;;;;19.43;46.53;100287.44;114103;1199;138757;-66
2021/10/03 11:40:31;;;;;;;13.50;9.00;;;;;;;19.27;47.04;100264.90;114172;1200;108540;-69
2021/10/03 11:43:18;;;;;;;15.80;9.50;;;;;;;19.18;47.62;100266.73;114095;1199;137406;-70
2021/10/03 11:46:06;;;;;;;11.00;9.60;;;;;;;19.11;48.06;100261.45;113305;1199;96156;-69
2021/10/03 11:48:53;;;;;;;13.90;9.70;;;;;;;19.12;48.42;100250.74;114117;1191;137595;-71
2021/10/03 11:51:43;;;;;;;13.40;10.00;;;;;;;19.24;48.63;100255.61;114170;1199;109517;-69
2021/10/03 11:54:45;;;;;;;11.70;10.10;;;;;;;19.17;47.98;100259.79;114062;1199;137738;-67
2021/10/03 11:57:36;;;;;;;16.00;9.30;;;;;;;18.99;48.18;100255.52;114208;1199;94209;-69
2021/10/03 12:00:27;;;;;;;12.60;9.30;;;;;;;18.84;48.52;100255.14;114041;1200;137212;-67
2021/10/03 12:03:15;;;;;;;13.60;9.70;;;;;;;18.83;49.01;100256.79;114185;1199;110952;-66
2021/10/03 12:06:36;;;;;;;13.00;10.20;;;;;;;18.89;48.85;100252.52;114029;1199;138210;-66
2021/10/03 12:09:27;;;;;;;11.10;9.00;;;;;;;18.98;48.96;100254.66;113755;1203;108582;-65
2021/10/03 12:12:14;;;;;;;14.60;9.30;;;;;;;18.98;48.34;100246.80;113677;1204;138750;-65
2021/10/03 12:15:01;;;;;;;15.30;9.50;;;;;;;18.94;48.75;100244.43;113770;1203;94564;-66
2021/10/03 12:17:50;;;;;;;13.70;8.70;;;;;;;18.98;48.59;100250.81;113475;1205;137661;-64
2021/10/03 12:20:58;;;;;;;16.00;9.60;;;;;;;18.95;48.65;100239.91;112394;1205;108215;-65
2021/10/03 12:23:50;;;;;;;14.50;9.30;;;;;;;18.91;48.88;100228.91;112271;1190;138832;-65
2021/10/03 12:26:41;;;;;;;14.60;9.00;;;;;;;18.94;48.96;100237.17;112425;1203;96335;-65
2021/10/03 12:29:28;;;;;;;12.10;8.70;;;;;;;18.98;48.86;100233.38;112408;1203;96610;-65
2021/10/03 12:32:17;;;;;;;14.70;9.00;;;;;;;19.01;49.02;100237.77;112270;1203;137087;-66
2021/10/03 12:35:05;;;;;;;10.90;8.80;;;;;;;18.92;49.08;100237.81;112418;1203;109315;-64
2021/10/03 12:37:54;;;;;;;13.50;8.70;;;;;;;18.80;49.30;100245.20;113680;1203;137756;-65
2021/10/03 12:40:40;;;;;;;12.00;8.40;;;;;;;18.68;49.31;100242.75;113742;1203;95717;-65